Campo Grande, Argentina
Current Conditions -  °F | °C
As of 8:00 PM on Monday 24 Nov 2014 (Local Time) from SARC Reporting Station
Scattered Clouds Scattered Clouds  
Wind Chill: 31°   Ceiling: Unl
Heat Index: 34°   Visibility: 6mi
Dew Point: 22°   Wind: 7mph
Humidity: 58%   Direction: 50°NE
Pressure: 29.62"   Gusts: NA
Location:  27.52°S, 58.3°W
Report Text: SARC 242300Z 05006KT 9999 FEW030 SCT20031/22 Q1003
Loading
Personal Weather Stations






























Interactive Weather Map New forecast layout! Learn more

10-Day Weather Forecast

Advertisements
Track Severe Weather on mobile